Terminal Aerodrome Forecast
Issued by NWS Cleveland, OH

Home | Current Version | Previous Version | Graphics & Text | Print | Product List | Glossary Off
Versions: 1 2 3 4 5 6 7 8 9 10 11 12 13 14 15

000
FTUS41 KCLE 200532
TAFMFD
TAF
KMFD 200532Z 2006/2106 VRB03KT P6SM SCT250
     FM201400 23007KT P6SM BKN200
     FM201800 23010KT P6SM VCTS SCT045CB SCT120
     FM210100 25007KT P6SM BKN120
     FM210500 25005KT 5SM BR SCT050=

USA.gov is the U.S. government's official web portal to all federal, state and local government web resources and services.